Terminal Aerodrome Forecast
Issued by NWS Sioux Falls, SD

Home | Current Version | Previous Version | Text Only | Print | Product List | Glossary On
Versions: 1 2 3 4 5 6 7 8 9 10 11 12 13 14 15 16 17 18
000
FTUS43 KFSD 210537
TAFHON
TAF
KHON 210537Z 2106/2206 17008KT 4SM BR OVC004
     FM211200 16011KT 2SM BR OVC004
     FM211700 15012KT 4SM BR OVC007
     FM212100 15012G18KT 6SM BR OVC012
     FM220400 15011KT 4SM -RA BR OVC010=

USA.gov is the U.S. government's official web portal to all federal, state and local government web resources and services.